createdAt,value
2024-01-24T00:00:06.762Z,98741.86
2024-01-24T00:03:00.783Z,98747.59
2024-01-24T00:05:29.072Z,98747.02
2024-01-24T00:07:57.224Z,98745.70
2024-01-24T00:10:25.436Z,98751.88
2024-01-24T00:12:54.752Z,98747.30
2024-01-24T00:15:23.002Z,98745.77
2024-01-24T00:17:51.168Z,98751.15
2024-01-24T00:20:19.831Z,98746.98
2024-01-24T00:22:47.954Z,98745.86
2024-01-24T00:25:16.114Z,98751.77
2024-01-24T00:27:44.275Z,98761.27
2024-01-24T00:30:12.725Z,98772.27
2024-01-24T00:32:40.974Z,98767.70
2024-01-24T00:35:09.750Z,98775.90
2024-01-24T00:37:37.792Z,98785.39
2024-01-24T00:43:23.189Z,98790.29
2024-01-24T00:45:51.524Z,98785.75
2024-01-24T00:48:19.789Z,98791.94
2024-01-24T00:50:47.831Z,98792.61
2024-01-24T00:53:19.000Z,98788.07
2024-01-24T00:55:47.964Z,98786.54
2024-01-24T00:58:16.126Z,98782.66
2024-01-24T01:00:44.883Z,98783.00
2024-01-24T01:03:13.647Z,98788.70
2024-01-24T01:05:42.113Z,98795.21
2024-01-24T01:08:10.496Z,98797.59
2024-01-24T01:10:38.517Z,98784.96
2024-01-24T01:13:06.666Z,98776.04
2024-01-24T01:15:34.742Z,98782.30
2024-01-24T01:18:02.876Z,98787.45
2024-01-24T01:20:33.090Z,98801.36
2024-01-24T01:23:01.211Z,98796.34
2024-01-24T01:25:29.322Z,98795.19
2024-01-24T01:27:57.492Z,98797.17
2024-01-24T01:30:25.746Z,98794.80
2024-01-24T01:32:54.000Z,98789.64
2024-01-24T01:35:22.130Z,98780.11
2024-01-24T01:37:50.372Z,98784.65
2024-01-24T01:49:51.813Z,98775.45
2024-01-24T01:52:21.321Z,98782.29
2024-01-24T01:54:49.542Z,98783.86
2024-01-24T01:57:17.846Z,98781.63
2024-01-24T01:59:46.064Z,98776.88
2024-01-24T02:02:14.658Z,98773.76
2024-01-24T02:04:43.299Z,98779.23
2024-01-24T02:07:11.397Z,98778.03
2024-01-24T02:09:39.810Z,98782.58
2024-01-24T02:12:08.041Z,98777.59
2024-01-24T02:14:36.229Z,98783.27
2024-01-24T02:17:04.445Z,98786.77
2024-01-24T02:19:32.712Z,98789.84
2024-01-24T02:22:00.859Z,98789.14
2024-01-24T02:24:29.151Z,98793.30
2024-01-24T02:26:57.348Z,98792.86
2024-01-24T02:29:25.590Z,98800.86
2024-01-24T02:31:54.217Z,98797.48
2024-01-24T02:34:22.543Z,98793.15
2024-01-24T02:36:50.965Z,98797.19
2024-01-24T02:39:19.454Z,98796.77
2024-01-24T02:41:47.665Z,98792.48
2024-01-24T02:44:15.674Z,98792.32
2024-01-24T02:46:43.814Z,98791.23
2024-01-24T02:49:12.145Z,98796.86
2024-01-24T02:51:40.550Z,98795.95
2024-01-24T02:54:08.693Z,98800.04
2024-01-24T02:56:38.747Z,98792.98
2024-01-24T02:59:06.941Z,98793.56
2024-01-24T03:01:35.150Z,98795.01
2024-01-24T03:04:03.480Z,98803.36
2024-01-24T03:06:31.812Z,98795.70
2024-01-24T03:09:00.359Z,98783.66
2024-01-24T03:11:28.575Z,98786.80
2024-01-24T03:13:56.765Z,98793.27
2024-01-24T03:16:24.995Z,98797.73
2024-01-24T03:18:53.476Z,98806.30
2024-01-24T03:21:21.923Z,98810.42
2024-01-24T03:23:49.989Z,98812.91
2024-01-24T03:26:18.232Z,98807.51
2024-01-24T03:28:46.366Z,98803.70
2024-01-24T03:31:14.609Z,98800.17
2024-01-24T03:33:43.567Z,98801.60
2024-01-24T03:36:11.883Z,98804.36
2024-01-24T03:38:40.290Z,98804.29
2024-01-24T03:41:08.501Z,98805.73
2024-01-24T03:43:41.021Z,98803.95
2024-01-24T03:46:09.535Z,98811.66
2024-01-24T03:48:37.797Z,98809.06
2024-01-24T03:51:09.748Z,98805.90
2024-01-24T03:53:38.112Z,98805.80
2024-01-24T03:56:07.309Z,98805.73
2024-01-24T03:58:36.316Z,98813.45
2024-01-24T04:01:05.775Z,98821.57
2024-01-24T04:03:34.280Z,98831.60
2024-01-24T04:06:02.597Z,98830.36
2024-01-24T04:08:30.705Z,98822.60
2024-01-24T04:10:59.084Z,98825.91
2024-01-24T04:13:27.259Z,98829.00
2024-01-24T04:15:55.399Z,98833.95
2024-01-24T04:18:23.688Z,98834.73
2024-01-24T04:20:51.866Z,98842.66
2024-01-24T04:23:19.885Z,98847.20
2024-01-24T04:25:47.953Z,98846.70
2024-01-24T04:28:16.017Z,98848.55
2024-01-24T04:30:44.265Z,98844.80
2024-01-24T04:33:14.652Z,98842.25
2024-01-24T04:35:42.858Z,98838.98
2024-01-24T04:38:11.035Z,98848.48
2024-01-24T04:40:39.127Z,98854.50
2024-01-24T04:43:08.993Z,98854.71
2024-01-24T04:45:37.208Z,98856.23
2024-01-24T04:48:07.538Z,98861.02
2024-01-24T04:50:35.839Z,98863.36
2024-01-24T04:53:04.230Z,98861.80
2024-01-24T04:55:32.393Z,98861.55
2024-01-24T04:58:00.552Z,98861.91
2024-01-24T05:00:28.908Z,98864.98
2024-01-24T05:02:57.539Z,98866.41
2024-01-24T05:05:25.622Z,98867.34
2024-01-24T05:07:53.989Z,98869.02
2024-01-24T05:10:22.172Z,98874.55
2024-01-24T05:12:50.217Z,98880.98
2024-01-24T05:15:18.570Z,98888.86
2024-01-24T05:17:47.218Z,98892.83
2024-01-24T05:20:15.576Z,98890.52
2024-01-24T05:22:44.341Z,98885.80
2024-01-24T05:25:12.561Z,98882.13
2024-01-24T05:27:40.568Z,98881.35
2024-01-24T05:30:16.578Z,98889.44
2024-01-24T05:32:57.114Z,98895.34
2024-01-24T05:35:25.250Z,98897.36
2024-01-24T05:37:53.620Z,98896.03
2024-01-24T05:40:21.763Z,98894.19
2024-01-24T05:42:53.343Z,98893.33
2024-01-24T05:45:21.996Z,98893.86
2024-01-24T05:47:50.271Z,98895.23
2024-01-24T05:50:18.498Z,98900.34
2024-01-24T05:52:46.742Z,98899.56
2024-01-24T05:55:14.959Z,98900.84
2024-01-24T05:57:43.372Z,98909.61
2024-01-24T06:00:16.157Z,98898.89
2024-01-24T06:02:45.261Z,98904.05
2024-01-24T06:05:16.437Z,98902.19
2024-01-24T06:07:45.171Z,98904.59
2024-01-24T06:10:13.703Z,98904.88
2024-01-24T06:12:41.922Z,98897.00
2024-01-24T06:15:10.567Z,98892.33
2024-01-24T06:17:38.748Z,98889.28
2024-01-24T06:20:08.038Z,98890.52
2024-01-24T06:25:53.645Z,98898.46
2024-01-24T06:28:21.843Z,98894.21
2024-01-24T06:30:50.258Z,98891.23
2024-01-24T06:33:18.601Z,98893.26
2024-01-24T06:35:47.126Z,98893.99
2024-01-24T06:38:15.929Z,98901.89
2024-01-24T06:40:44.207Z,98905.22
2024-01-24T06:43:15.831Z,98910.51
2024-01-24T06:45:44.006Z,98913.24
2024-01-24T06:48:12.128Z,98912.33
2024-01-24T06:50:40.274Z,98913.83
2024-01-24T06:53:11.640Z,98909.25
2024-01-24T06:55:39.830Z,98910.27
2024-01-24T06:58:08.560Z,98917.59
2024-01-24T07:00:36.820Z,98922.96
2024-01-24T07:03:05.579Z,98917.55
2024-01-24T07:05:33.781Z,98915.29
2024-01-24T07:08:01.983Z,98916.84
2024-01-24T07:10:30.154Z,98916.47
2024-01-24T07:12:58.625Z,98920.61
2024-01-24T07:15:26.918Z,98925.77
2024-01-24T07:17:57.156Z,98925.73
2024-01-24T07:20:25.458Z,98928.05
2024-01-24T07:22:53.530Z,98930.25
2024-01-24T07:25:22.486Z,98933.41
2024-01-24T07:27:50.790Z,98933.67
2024-01-24T07:30:19.485Z,98932.27
2024-01-24T07:32:47.802Z,98930.54
2024-01-24T07:35:16.380Z,98926.02
2024-01-24T07:37:45.716Z,98921.73
2024-01-24T07:43:34.677Z,98928.10
2024-01-24T07:46:03.304Z,98931.61
2024-01-24T07:48:34.108Z,98932.07
2024-01-24T07:51:02.361Z,98928.73
2024-01-24T07:53:30.611Z,98924.85
2024-01-24T07:56:03.725Z,98923.12
2024-01-24T07:58:42.498Z,98919.36
2024-01-24T08:01:10.932Z,98917.66
2024-01-24T08:03:39.345Z,98923.43
2024-01-24T08:06:07.954Z,98925.27
2024-01-24T08:08:36.370Z,98922.47
2024-01-24T08:11:04.548Z,98924.34
2024-01-24T08:13:34.074Z,98921.52
2024-01-24T08:16:02.493Z,98922.14
2024-01-24T08:18:31.368Z,98923.34
2024-01-24T08:20:59.576Z,98923.64
2024-01-24T08:23:34.720Z,98920.38
2024-01-24T08:26:10.758Z,98919.67
2024-01-24T08:28:38.879Z,98919.14
2024-01-24T08:31:07.153Z,98913.39
2024-01-24T08:33:35.460Z,98908.10
2024-01-24T08:36:04.116Z,98903.44
2024-01-24T08:38:32.365Z,98907.70
2024-01-24T08:41:00.495Z,98911.82
2024-01-24T08:43:28.661Z,98914.13
2024-01-24T08:45:56.745Z,98909.71
2024-01-24T08:48:26.354Z,98905.33
2024-01-24T08:50:55.180Z,98905.98
2024-01-24T08:53:23.354Z,98910.24
2024-01-24T08:55:51.766Z,98909.50
2024-01-24T08:58:19.990Z,98907.55
2024-01-24T09:00:48.469Z,98904.91
2024-01-24T09:03:16.993Z,98901.50
2024-01-24T09:05:45.999Z,98899.14
2024-01-24T09:08:14.525Z,98894.47
2024-01-24T09:10:42.608Z,98891.33
2024-01-24T09:13:11.049Z,98890.00
2024-01-24T09:15:39.780Z,98881.20
2024-01-24T09:18:08.753Z,98881.74
2024-01-24T09:20:37.241Z,98879.14
2024-01-24T09:23:05.941Z,98877.86
2024-01-24T09:25:34.103Z,98879.38
2024-01-24T09:28:02.295Z,98869.98
2024-01-24T09:30:31.956Z,98860.14
2024-01-24T09:33:00.282Z,98849.82
2024-01-24T09:35:29.059Z,98844.53
2024-01-24T09:37:57.379Z,98841.17
2024-01-24T09:40:26.494Z,98837.10
2024-01-24T09:42:54.918Z,98832.98
2024-01-24T09:45:23.851Z,98824.95
2024-01-24T09:47:52.235Z,98818.84
2024-01-24T09:50:20.574Z,98812.27
2024-01-24T09:52:50.649Z,98808.92
2024-01-24T09:55:20.143Z,98802.11
2024-01-24T09:57:48.839Z,98789.81
2024-01-24T10:00:17.364Z,98786.58
2024-01-24T10:02:46.953Z,98790.21
2024-01-24T10:05:17.953Z,98792.15
2024-01-24T10:07:47.011Z,98787.70
2024-01-24T10:10:16.618Z,98790.29
2024-01-24T10:12:45.097Z,98785.67
2024-01-24T10:15:13.543Z,98786.46
2024-01-24T10:17:43.346Z,98776.58
2024-01-24T10:20:15.765Z,98772.03
2024-01-24T10:22:44.608Z,98754.23
2024-01-24T10:25:13.144Z,98748.12
2024-01-24T10:27:42.959Z,98739.63
2024-01-24T10:30:13.401Z,98730.54
2024-01-24T10:32:47.083Z,98727.93
2024-01-24T10:35:16.111Z,98724.80
2024-01-24T10:37:44.850Z,98723.93
2024-01-24T10:40:16.323Z,98716.86
2024-01-24T10:42:45.146Z,98712.89
2024-01-24T10:45:13.797Z,98702.54
2024-01-24T10:47:42.070Z,98697.26
2024-01-24T10:50:11.432Z,98691.31
2024-01-24T10:52:40.915Z,98682.73
2024-01-24T10:55:12.391Z,98682.77
2024-01-24T10:57:41.717Z,98677.06
2024-01-24T11:00:12.823Z,98672.92
2024-01-24T11:02:43.351Z,98664.09
2024-01-24T11:05:19.058Z,98664.47
2024-01-24T11:08:12.529Z,98665.08
2024-01-24T11:10:44.177Z,98670.80
2024-01-24T11:13:13.241Z,98668.89
2024-01-24T11:15:41.919Z,98665.39
2024-01-24T11:18:35.134Z,98654.36
2024-01-24T11:21:04.812Z,98642.42
2024-01-24T11:23:45.772Z,98640.52
2024-01-24T11:26:33.837Z,98640.53
2024-01-24T11:29:14.687Z,98634.17
2024-01-24T11:31:44.017Z,98624.89
2024-01-24T11:34:13.330Z,98618.35
2024-01-24T11:36:48.890Z,98609.93
2024-01-24T11:39:41.004Z,98606.88
2024-01-24T11:42:24.907Z,98601.59
2024-01-24T11:45:17.030Z,98597.95
2024-01-24T11:47:45.696Z,98594.41
2024-01-24T11:50:14.174Z,98585.65
2024-01-24T11:52:42.516Z,98573.17
2024-01-24T11:55:10.961Z,98568.39
2024-01-24T11:57:39.247Z,98555.46
2024-01-24T12:00:10.218Z,98543.98
2024-01-24T12:02:39.287Z,98545.75
2024-01-24T12:05:07.767Z,98542.78
2024-01-24T12:07:36.021Z,98539.07
2024-01-24T12:10:05.722Z,98538.91
2024-01-24T12:12:34.024Z,98534.36
2024-01-24T12:15:02.243Z,98531.46
2024-01-24T12:17:30.758Z,98525.40
2024-01-24T12:20:00.820Z,98524.41
2024-01-24T12:22:29.582Z,98517.31
2024-01-24T12:25:03.278Z,98513.71
2024-01-24T12:27:31.631Z,98512.64
2024-01-24T12:29:59.750Z,98507.31
2024-01-24T12:32:28.040Z,98502.05
2024-01-24T12:34:56.371Z,98498.48
2024-01-24T12:37:25.056Z,98498.48
2024-01-24T12:39:55.113Z,98493.12
2024-01-24T12:42:24.096Z,98484.73
2024-01-24T12:44:54.124Z,98481.80
2024-01-24T12:56:52.349Z,98487.33
2024-01-24T12:59:20.585Z,98484.86
2024-01-24T13:01:50.102Z,98471.86
2024-01-24T13:04:19.015Z,98455.98
2024-01-24T13:06:47.306Z,98456.73
2024-01-24T13:09:16.037Z,98451.51
2024-01-24T13:11:46.034Z,98448.09
2024-01-24T13:14:14.276Z,98443.46
2024-01-24T13:16:43.525Z,98441.79
2024-01-24T13:19:11.826Z,98447.49
2024-01-24T13:21:42.832Z,98448.54
2024-01-24T13:24:12.056Z,98444.48
2024-01-24T13:26:40.265Z,98445.88
2024-01-24T13:29:08.527Z,98446.70
2024-01-24T13:31:36.789Z,98455.46
2024-01-24T13:34:05.040Z,98457.19
2024-01-24T13:36:33.896Z,98451.87
2024-01-24T13:39:02.240Z,98451.70
2024-01-24T13:41:30.332Z,98445.59
2024-01-24T13:43:58.491Z,98440.67
2024-01-24T13:46:26.605Z,98441.98
2024-01-24T13:48:54.861Z,98446.50
2024-01-24T13:51:27.138Z,98438.81
2024-01-24T13:54:03.799Z,98426.05
2024-01-24T13:56:31.879Z,98429.79
2024-01-24T13:59:00.081Z,98432.17
2024-01-24T14:01:28.996Z,98431.19
2024-01-24T14:03:58.364Z,98434.15
2024-01-24T14:06:27.124Z,98425.86
2024-01-24T14:08:55.420Z,98420.45
2024-01-24T14:11:24.714Z,98422.42
2024-01-24T14:13:53.073Z,98420.48
2024-01-24T14:16:21.805Z,98412.77
2024-01-24T14:18:52.371Z,98405.51
2024-01-24T14:21:20.678Z,98395.96
2024-01-24T14:23:48.840Z,98376.89
2024-01-24T14:35:44.997Z,98315.25
2024-01-24T14:38:13.286Z,98313.48
2024-01-24T14:40:41.360Z,98303.76
2024-01-24T14:43:09.650Z,98297.17
2024-01-24T14:45:38.572Z,98313.20
2024-01-24T14:48:07.180Z,98304.19
2024-01-24T14:50:35.245Z,98308.32
2024-01-24T14:53:06.917Z,98311.79
2024-01-24T14:55:35.160Z,98312.73
2024-01-24T14:58:03.447Z,98326.33
2024-01-24T15:00:32.210Z,98322.36
2024-01-24T15:03:00.995Z,98307.33
2024-01-24T15:05:29.192Z,98291.59
2024-01-24T15:07:57.390Z,98283.91
2024-01-24T15:10:25.693Z,98276.04
2024-01-24T15:12:54.483Z,98261.52
2024-01-24T15:15:22.833Z,98240.02
2024-01-24T15:17:51.746Z,98226.44
2024-01-24T15:20:21.383Z,98219.85
2024-01-24T15:22:51.376Z,98221.40
2024-01-24T15:25:19.975Z,98229.81
2024-01-24T15:27:49.318Z,98233.16
2024-01-24T15:30:19.257Z,98235.18
2024-01-24T15:32:47.617Z,98242.45
2024-01-24T15:35:16.287Z,98245.39
2024-01-24T15:37:44.767Z,98246.01
2024-01-24T15:40:17.642Z,98250.71
2024-01-24T15:42:46.741Z,98246.95
2024-01-24T15:45:15.116Z,98244.86
2024-01-24T15:47:44.063Z,98235.73
2024-01-24T15:50:13.024Z,98233.05
2024-01-24T15:52:41.190Z,98224.17
2024-01-24T15:55:09.493Z,98208.86
2024-01-24T15:57:38.404Z,98209.73
2024-01-24T16:00:11.362Z,98211.35
2024-01-24T16:02:41.823Z,98209.98
2024-01-24T16:05:42.668Z,98206.98
2024-01-24T16:08:11.744Z,98210.35
2024-01-24T16:10:40.212Z,98223.92
2024-01-24T16:13:08.944Z,98229.79
2024-01-24T16:15:37.515Z,98225.28
2024-01-24T16:18:06.446Z,98214.55
2024-01-24T16:20:34.628Z,98214.84
2024-01-24T16:23:02.894Z,98226.81
2024-01-24T16:25:33.976Z,98238.71
2024-01-24T16:28:02.410Z,98249.77
2024-01-24T16:30:32.469Z,98244.52
2024-01-24T16:33:00.784Z,98236.98
2024-01-24T16:35:28.875Z,98236.45
2024-01-24T16:37:57.120Z,98245.38
2024-01-24T16:40:25.439Z,98240.67
2024-01-24T16:42:53.701Z,98235.90
2024-01-24T16:45:22.163Z,98226.23
2024-01-24T16:47:51.138Z,98206.95
2024-01-24T16:50:19.682Z,98200.89
2024-01-24T16:52:47.844Z,98192.27
2024-01-24T16:55:16.115Z,98182.16
2024-01-24T16:57:44.372Z,98178.54
2024-01-24T17:00:13.544Z,98181.52
2024-01-24T17:02:46.520Z,98170.73
2024-01-24T17:05:20.131Z,98176.02
2024-01-24T17:07:48.674Z,98180.80
2024-01-24T17:10:17.168Z,98177.29
2024-01-24T17:12:45.678Z,98170.64
2024-01-24T17:15:14.881Z,98165.34
2024-01-24T17:17:45.018Z,98160.90
2024-01-24T17:20:13.302Z,98159.65
2024-01-24T17:22:41.499Z,98154.09
2024-01-24T17:25:11.526Z,98141.53
2024-01-24T17:27:40.281Z,98133.65
2024-01-24T17:30:11.376Z,98131.92
2024-01-24T17:32:39.953Z,98130.69
2024-01-24T17:35:08.241Z,98123.78
2024-01-24T17:37:36.667Z,98128.71
2024-01-24T17:40:06.211Z,98123.31
2024-01-24T17:42:34.757Z,98124.02
2024-01-24T17:45:03.100Z,98114.47
2024-01-24T17:47:32.319Z,98102.22
2024-01-24T17:50:02.297Z,98098.55
2024-01-24T17:52:30.566Z,98094.89
2024-01-24T17:55:02.057Z,98098.69
2024-01-24T17:57:30.895Z,98099.90
2024-01-24T18:00:02.229Z,98084.31
2024-01-24T18:02:33.729Z,98070.59
2024-01-24T18:05:02.306Z,98059.67
2024-01-24T18:07:31.832Z,98033.67
2024-01-24T18:10:00.714Z,98013.55
2024-01-24T18:12:29.075Z,98017.67
2024-01-24T18:14:57.176Z,98002.73
2024-01-24T18:17:25.389Z,97990.44
2024-01-24T18:19:53.728Z,97995.17
2024-01-24T18:22:21.916Z,97996.60
2024-01-24T18:24:50.379Z,98006.09
2024-01-24T18:27:18.774Z,98009.27
2024-01-24T18:29:47.030Z,98012.32
2024-01-24T18:32:17.482Z,98017.14
2024-01-24T18:34:45.850Z,98007.48
2024-01-24T18:37:14.251Z,98010.26
2024-01-24T18:39:42.489Z,98009.34
2024-01-24T18:42:10.686Z,98008.39
2024-01-24T18:44:39.219Z,98004.67
2024-01-24T18:47:07.890Z,97995.27
2024-01-24T18:49:36.379Z,97991.06
2024-01-24T18:52:05.137Z,97990.64
2024-01-24T18:54:33.451Z,97994.33
2024-01-24T18:57:01.739Z,97988.95
2024-01-24T18:59:30.338Z,97994.37
2024-01-24T19:01:58.558Z,97999.15
2024-01-24T19:04:26.997Z,98009.06
2024-01-24T19:06:56.553Z,98023.60
2024-01-24T19:09:25.095Z,98032.88
2024-01-24T19:11:55.229Z,98027.02
2024-01-24T19:14:23.679Z,98019.83
2024-01-24T19:16:51.822Z,98016.78
2024-01-24T19:19:21.828Z,98018.83
2024-01-24T19:21:50.129Z,98015.03
2024-01-24T19:24:19.510Z,97994.91
2024-01-24T19:26:47.713Z,97973.39
2024-01-24T19:29:17.008Z,97957.29
2024-01-24T19:31:45.118Z,97934.84
2024-01-24T19:34:13.450Z,97921.95
2024-01-24T19:36:42.507Z,97933.96
2024-01-24T19:39:10.771Z,97936.53
2024-01-24T19:41:38.939Z,97939.92
2024-01-24T19:44:07.224Z,97935.70
2024-01-24T19:46:35.486Z,97933.73
2024-01-24T19:49:03.712Z,97920.09
2024-01-24T19:51:31.899Z,97917.00
2024-01-24T19:54:00.385Z,97904.48
2024-01-24T19:56:28.535Z,97904.58
2024-01-24T19:58:58.178Z,97899.45
2024-01-24T20:01:26.548Z,97898.55
2024-01-24T20:03:55.108Z,97894.05
2024-01-24T20:06:24.391Z,97899.36
2024-01-24T20:08:53.327Z,97915.19
2024-01-24T20:11:21.764Z,97919.54
2024-01-24T20:13:50.466Z,97920.66
2024-01-24T20:16:19.363Z,97923.66
2024-01-24T20:18:47.825Z,97926.63
2024-01-24T20:21:16.517Z,97923.88
2024-01-24T20:23:45.017Z,97922.52
2024-01-24T20:26:13.189Z,97913.02
2024-01-24T20:28:41.392Z,97909.31
2024-01-24T20:31:09.463Z,97905.56
2024-01-24T20:33:43.752Z,97881.05
2024-01-24T20:36:12.481Z,97864.85
2024-01-24T20:38:42.127Z,97858.24
2024-01-24T20:41:10.444Z,97871.26
2024-01-24T20:43:40.357Z,97882.97
2024-01-24T20:46:09.483Z,97880.58
2024-01-24T20:48:38.002Z,97869.79
2024-01-24T20:51:06.390Z,97856.73
2024-01-24T20:53:34.690Z,97853.56
2024-01-24T20:56:04.294Z,97853.29
2024-01-24T20:58:33.079Z,97853.48
2024-01-24T21:01:02.544Z,97845.97
2024-01-24T21:03:31.683Z,97820.52
2024-01-24T21:06:00.090Z,97805.84
2024-01-24T21:08:28.527Z,97807.23
2024-01-24T21:11:02.916Z,97807.66
2024-01-24T21:13:32.734Z,97805.94
2024-01-24T21:16:02.377Z,97803.77
2024-01-24T21:18:30.972Z,97802.16
2024-01-24T21:20:59.332Z,97802.03
2024-01-24T21:23:27.543Z,97801.95
2024-01-24T21:25:55.805Z,97789.35
2024-01-24T21:28:24.001Z,97792.14
2024-01-24T21:30:52.234Z,97791.70
2024-01-24T21:33:20.578Z,97788.70
2024-01-24T21:35:48.866Z,97801.58
2024-01-24T21:38:18.595Z,97797.63
2024-01-24T21:40:47.356Z,97796.67
2024-01-24T21:43:15.548Z,97790.16
2024-01-24T21:45:43.814Z,97782.13
2024-01-24T21:48:12.041Z,97787.20
2024-01-24T21:50:40.278Z,97796.99
2024-01-24T21:53:08.720Z,97808.05
2024-01-24T21:55:36.823Z,97803.66
2024-01-24T21:58:05.527Z,97792.38
2024-01-24T22:00:34.002Z,97793.94
2024-01-24T22:03:02.192Z,97793.83
2024-01-24T22:05:30.527Z,97780.67
2024-01-24T22:07:58.697Z,97769.71
2024-01-24T22:10:26.913Z,97760.19
2024-01-24T22:12:56.211Z,97741.98
2024-01-24T22:15:24.431Z,97730.91
2024-01-24T22:17:52.708Z,97723.99
2024-01-24T22:20:20.995Z,97729.78
2024-01-24T22:22:49.204Z,97732.18
2024-01-24T22:25:17.270Z,97723.81
2024-01-24T22:27:45.367Z,97723.43
2024-01-24T22:30:15.281Z,97719.56
2024-01-24T22:32:44.110Z,97723.70
2024-01-24T22:35:12.942Z,97729.41
2024-01-24T22:37:41.346Z,97732.14
2024-01-24T22:40:09.879Z,97735.54
2024-01-24T22:42:38.156Z,97725.80
2024-01-24T22:45:06.914Z,97718.47
2024-01-24T22:47:35.026Z,97703.02
2024-01-24T22:50:06.008Z,97685.92
2024-01-24T22:52:34.242Z,97674.83
2024-01-24T22:55:02.385Z,97662.83
2024-01-24T22:57:30.646Z,97672.61
2024-01-24T22:59:58.951Z,97652.61
2024-01-24T23:02:27.099Z,97657.98
2024-01-24T23:04:56.109Z,97661.23
2024-01-24T23:07:24.520Z,97647.81
2024-01-24T23:09:52.748Z,97641.84
2024-01-24T23:12:21.058Z,97622.75
2024-01-24T23:14:49.217Z,97624.95
2024-01-24T23:17:17.278Z,97612.87
2024-01-24T23:19:45.516Z,97614.53
2024-01-24T23:22:14.286Z,97611.05
2024-01-24T23:24:43.133Z,97604.55
2024-01-24T23:27:11.303Z,97625.17
2024-01-24T23:29:39.408Z,97591.77
2024-01-24T23:32:07.896Z,97590.71
2024-01-24T23:34:36.189Z,97602.59
2024-01-24T23:37:04.706Z,97587.35
2024-01-24T23:39:32.917Z,97591.96
2024-01-24T23:42:01.130Z,97587.95
2024-01-24T23:44:29.357Z,97581.69
2024-01-24T23:46:57.400Z,97591.87
2024-01-24T23:49:25.782Z,97585.73
2024-01-24T23:51:54.512Z,97574.52
2024-01-24T23:54:22.831Z,97582.55
2024-01-24T23:56:51.746Z,97590.72
2024-01-24T23:59:20.049Z,97592.23
